Dickinson, Alabama
Current Conditions -  °F | °C
As of 6:29 AM on Sunday 21 Dec 2014 (Local Time) from KGZH Reporting Station
Haze Haze  
Wind Chill: 53°   Ceiling: 3100
Heat Index: 53°   Visibility: 5mi
Dew Point: 50°   Wind: 3mph
Humidity: 89%   Direction: 30°NNE
Pressure: 30.13"   Gusts: NA
Location:  31.77°N, 87.71°W
Report Text: KGZH 211229Z AUTO 03003KT 5SM BR SCT008 BKN031 OVC041 12/10 A3013 RMK AO2 T01170100
Loading
Personal Weather Stations






























Interactive Weather Map New forecast layout! Learn more

10-Day Weather Forecast

Advertisements
Track Severe Weather on mobile